Аэропорт: Угольный. Анадырь

ICAO: UHMA

METAR:
2024-04-22 22:00:00
UHMA 222200Z 04004MPS 9999 FEW051 M11/M16 Q1015 R02/320060 NOSIG RMK MID 04004MPS END R02/04004MPS QFE757/1010
TAF:
2024-04-22 19:56:00
TAF UHMA 221956Z 2221/2321 01003MPS 9999 SCT033 
  TEMPO 2221/2310 07008MPS 5000 -SN DRSN BKN020 
  FM231000 01008G13MPS 5000 -SN DRSN SCT007 BKN015 
  TEMPO 2310/2321 06013G19MPS 1100 SHSN BLSN BKN002 BKN015CB